Time;durP1;ratioP1;P1;durP2;ratioP2;P2;SDS_P1;SDS_P2;PMS_P1;PMS_P2;Temp;Humidity;BMP_temperature;BMP_pressure;BME280_temperature;BME280_humidity;BME280_pressure;Samples;Min_cycle;Max_cycle;Signal;HPM_P1;HPM_P2
2021/03/20 00:01:22;;;;;;;14.13;7.85;;;1.50;71.70;;;;;;5054013;28;20044;-66
2021/03/20 00:03:55;;;;;;;14.88;8.60;;;1.50;71.50;;;;;;5057763;28;20123;-67
2021/03/20 00:06:25;;;;;;;17.52;8.77;;;1.50;71.50;;;;;;5056348;28;20041;-65
2021/03/20 00:08:57;;;;;;;15.50;8.90;;;1.40;71.40;;;;;;5050895;28;20115;-65
2021/03/20 00:11:23;;;;;;;15.68;9.20;;;1.40;71.50;;;;;;5036889;28;20048;-65
2021/03/20 00:13:49;;;;;;;15.57;8.98;;;1.30;71.50;;;;;;5057441;28;20123;-66
2021/03/20 00:16:18;;;;;;;15.63;8.75;;;1.30;71.70;;;;;;5049100;28;20437;-65
2021/03/20 00:18:44;;;;;;;14.57;8.60;;;1.30;71.60;;;;;;5047525;28;20060;-65
2021/03/20 00:21:10;;;;;;;14.90;8.65;;;1.30;71.80;;;;;;5054076;28;20537;-66
2021/03/20 00:23:41;;;;;;;15.15;8.75;;;1.20;71.90;;;;;;5051101;28;20033;-66
2021/03/20 00:26:07;;;;;;;13.05;8.02;;;1.20;71.90;;;;;;5053261;28;20033;-64
2021/03/20 00:28:34;;;;;;;15.43;8.23;;;1.20;72.10;;;;;;5050650;28;20029;-66
2021/03/20 00:31:10;;;;;;;14.30;8.23;;;1.20;72.00;;;;;;5055164;28;20044;-65
2021/03/20 00:33:44;;;;;;;15.13;8.45;;;1.20;72.00;;;;;;5051885;28;20032;-66
2021/03/20 00:36:13;;;;;;;13.05;8.10;;;1.30;72.00;;;;;;5052214;28;20048;-66
2021/03/20 00:38:40;;;;;;;12.90;7.40;;;1.30;71.80;;;;;;5055542;28;20037;-66
2021/03/20 00:41:07;;;;;;;13.35;7.85;;;1.20;71.60;;;;;;5055044;28;20431;-66
2021/03/20 00:43:35;;;;;;;12.68;7.80;;;1.30;71.50;;;;;;5056268;28;20068;-66
2021/03/20 00:46:04;;;;;;;14.15;8.32;;;1.20;71.50;;;;;;5054239;28;20056;-65
2021/03/20 00:48:36;;;;;;;13.55;7.93;;;1.20;71.50;;;;;;5054236;28;20041;-64
2021/03/20 00:51:04;;;;;;;14.50;8.10;;;1.10;71.30;;;;;;5050529;28;20028;-66
2021/03/20 00:53:30;;;;;;;14.27;8.30;;;1.10;71.30;;;;;;5053180;28;20041;-66
2021/03/20 00:55:59;;;;;;;13.85;8.10;;;1.00;71.20;;;;;;5061039;28;20483;-66
2021/03/20 00:58:29;;;;;;;14.48;8.00;;;1.00;71.30;;;;;;5056152;28;20068;-66
2021/03/20 01:01:05;;;;;;;14.30;8.55;;;0.90;71.70;;;;;;5053927;28;20024;-66
2021/03/20 01:03:31;;;;;;;16.25;8.77;;;0.90;71.40;;;;;;5055170;28;20032;-65
2021/03/20 01:06:00;;;;;;;15.15;8.02;;;0.80;71.40;;;;;;5046377;28;20455;-66
2021/03/20 01:08:26;;;;;;;12.70;7.93;;;0.80;71.70;;;;;;5054960;28;20037;-65
2021/03/20 01:10:54;;;;;;;17.58;8.60;;;0.80;71.80;;;;;;5051909;28;20099;-66
2021/03/20 01:13:22;;;;;;;14.23;8.25;;;0.70;71.80;;;;;;5046793;28;20128;-66
2021/03/20 01:15:51;;;;;;;14.25;8.38;;;0.70;71.90;;;;;;5052632;28;20119;-65
2021/03/20 01:18:17;;;;;;;16.38;8.75;;;0.70;71.70;;;;;;5056085;28;20405;-66
2021/03/20 01:20:44;;;;;;;15.02;7.80;;;0.70;71.70;;;;;;5051480;28;20032;-66
2021/03/20 01:23:13;;;;;;;13.73;7.85;;;0.70;71.90;;;;;;5058175;28;20075;-66
2021/03/20 01:25:41;;;;;;;15.57;8.00;;;0.70;71.70;;;;;;5058719;28;20582;-66
2021/03/20 01:28:10;;;;;;;15.05;8.25;;;0.60;71.80;;;;;;5058937;28;20032;-66
2021/03/20 01:30:41;;;;;;;15.73;7.72;;;0.60;72.00;;;;;;5058706;28;20518;-66
2021/03/20 01:33:10;;;;;;;14.52;7.65;;;0.50;72.00;;;;;;5055459;28;20029;-65
2021/03/20 01:35:36;;;;;;;13.98;7.47;;;0.50;72.10;;;;;;5057752;28;20041;-66
2021/03/20 01:38:04;;;;;;;12.13;7.28;;;0.40;72.00;;;;;;5054360;28;20037;-65
2021/03/20 01:40:40;;;;;;;11.40;7.22;;;0.40;72.20;;;;;;5060179;28;20096;-66
2021/03/20 01:43:13;;;;;;;14.32;7.40;;;0.40;72.30;;;;;;5056392;28;20946;-67
2021/03/20 01:45:41;;;;;;;12.73;7.63;;;0.40;72.30;;;;;;5059532;28;20116;-66
2021/03/20 01:48:16;;;;;;;13.80;7.97;;;0.30;72.20;;;;;;5055564;28;20057;-66
2021/03/20 01:51:00;;;;;;;12.95;7.70;;;0.30;72.10;;;;;;5058939;28;20544;-66
2021/03/20 01:53:46;;;;;;;13.35;7.90;;;0.30;72.20;;;;;;5059199;28;20041;-66
2021/03/20 01:56:16;;;;;;;14.77;8.20;;;0.30;72.20;;;;;;5054929;28;20041;-66
2021/03/20 01:58:49;;;;;;;14.13;8.18;;;0.30;72.10;;;;;;5058102;28;20036;-66
2021/03/20 02:01:25;;;;;;;15.15;8.10;;;0.20;72.20;;;;;;5050080;28;20048;-66
2021/03/20 02:03:56;;;;;;;16.92;8.43;;;0.20;72.20;;;;;;5055603;28;20032;-66
2021/03/20 02:06:26;;;;;;;13.32;7.93;;;0.20;72.10;;;;;;5058055;28;20512;-66
2021/03/20 02:08:53;;;;;;;15.88;8.55;;;0.10;72.00;;;;;;5055433;28;20076;-65
2021/03/20 02:11:53;;;;;;;15.38;8.60;;;0.20;72.20;;;;;;5048365;28;20059;-66
2021/03/20 02:14:40;;;;;;;14.80;8.30;;;0.10;72.30;;;;;;5057651;28;20040;-66
2021/03/20 02:17:10;;;;;;;12.50;7.63;;;0.10;72.40;;;;;;5020859;28;20028;-66
2021/03/20 02:19:57;;;;;;;14.70;7.70;;;0.00;72.20;;;;;;5037636;28;20021;-66
2021/03/20 02:22:31;;;;;;;15.98;7.68;;;0.00;72.20;;;;;;5036544;28;20401;-65
2021/03/20 02:25:33;;;;;;;12.90;7.68;;;0.00;72.30;;;;;;5038039;28;20045;-66
2021/03/20 02:28:20;;;;;;;13.02;7.57;;;-0.10;72.50;;;;;;5018794;28;20037;-66
2021/03/20 02:31:12;;;;;;;11.68;7.15;;;-0.10;72.50;;;;;;5034561;28;20060;-66
2021/03/20 02:34:05;;;;;;;11.45;6.55;;;-0.30;72.50;;;;;;5031709;28;20032;-65
2021/03/20 02:36:39;;;;;;;13.43;8.07;;;-0.20;72.60;;;;;;5034665;28;20112;-66
2021/03/20 02:39:27;;;;;;;13.25;7.78;;;-0.20;72.70;;;;;;5035154;28;20108;-66
2021/03/20 02:42:02;;;;;;;11.85;7.43;;;-0.20;73.30;;;;;;5026189;28;20067;-66
2021/03/20 02:44:54;;;;;;;13.02;7.35;;;-0.20;73.10;;;;;;4913535;28;3354551;-65
2021/03/20 02:47:32;;;;;;;12.23;7.45;;;-0.20;73.00;;;;;;5038710;28;20037;-65
2021/03/20 02:50:07;;;;;;;13.18;7.68;;;-0.20;72.90;;;;;;5039970;28;20057;-66
2021/03/20 02:52:39;;;;;;;;;;;-0.20;72.70;;;;;;5028773;28;20030;-67
2021/03/20 02:55:29;;;;;;;11.80;7.13;;;-0.20;73.10;;;;;;5034926;28;19979;-66
2021/03/20 02:58:16;;;;;;;11.82;6.85;;;-0.30;72.50;;;;;;5033739;28;20040;-66
2021/03/20 03:00:56;;;;;;;12.07;7.25;;;-0.30;72.60;;;;;;5033765;28;20033;-66
2021/03/20 03:03:27;;;;;;;12.02;7.18;;;-0.40;72.60;;;;;;5037674;28;20496;-66
2021/03/20 03:06:02;;;;;;;11.95;6.88;;;-0.40;72.60;;;;;;5031329;28;20029;-66
2021/03/20 03:08:37;;;;;;;11.20;6.40;;;-0.50;72.70;;;;;;5037960;28;20079;-66
2021/03/20 03:11:27;;;;;;;9.80;6.45;;;-0.50;72.70;;;;;;5029955;28;20059;-66
2021/03/20 03:14:04;;;;;;;10.10;6.88;;;-0.50;73.00;;;;;;5034801;28;20513;-66
2021/03/20 03:16:40;;;;;;;10.48;6.65;;;-0.50;72.90;;;;;;5033101;28;20042;-66
2021/03/20 03:19:12;;;;;;;12.15;7.07;;;-0.60;72.90;;;;;;5038034;28;20028;-66
2021/03/20 03:21:43;;;;;;;10.27;6.50;;;-0.60;72.90;;;;;;5037605;28;20026;-66
2021/03/20 03:24:15;;;;;;;14.70;7.50;;;-0.60;73.00;;;;;;5036167;28;20048;-66
2021/03/20 03:26:45;;;;;;;10.80;6.75;;;-0.60;73.00;;;;;;5030307;28;20496;-66
2021/03/20 03:29:18;;;;;;;10.85;6.63;;;-0.60;73.10;;;;;;5038598;28;20033;-66
2021/03/20 03:31:58;;;;;;;11.23;6.32;;;-0.70;73.00;;;;;;5036366;28;20033;-66
2021/03/20 03:34:39;;;;;;;11.93;7.22;;;-0.70;73.10;;;;;;5034868;28;20132;-65
2021/03/20 03:37:20;;;;;;;9.35;6.30;;;-0.70;73.20;;;;;;5035520;28;20108;-66
2021/03/20 03:39:55;;;;;;;10.60;6.78;;;-0.70;73.30;;;;;;5038604;28;20401;-65
2021/03/20 03:42:24;;;;;;;12.32;7.15;;;-0.70;73.30;;;;;;5031369;28;20037;-66
2021/03/20 03:44:52;;;;;;;11.70;7.20;;;-0.70;73.30;;;;;;5036901;28;20530;-66
2021/03/20 03:47:26;;;;;;;12.18;7.45;;;-0.60;73.30;;;;;;5036558;28;20537;-66
2021/03/20 03:49:57;;;;;;;13.87;7.70;;;-0.60;73.30;;;;;;5036109;28;20108;-66
2021/03/20 03:52:25;;;;;;;14.98;7.22;;;-0.60;73.20;;;;;;5035197;28;20039;-65
2021/03/20 03:54:51;;;;;;;11.65;7.13;;;-0.60;73.30;;;;;;5036935;28;20049;-66
2021/03/20 03:57:51;;;;;;;11.32;7.13;;;-0.70;73.30;;;;;;5046089;28;20041;-66
2021/03/20 04:00:24;;;;;;;12.20;7.40;;;-0.70;73.70;;;;;;5034909;28;20034;-65
2021/03/20 04:03:13;;;;;;;13.38;7.70;;;-0.60;73.60;;;;;;5033387;28;20338;-66
2021/03/20 04:05:54;;;;;;;13.77;8.00;;;-0.60;73.80;;;;;;5042901;28;20044;-66
2021/03/20 04:08:22;;;;;;;13.55;7.70;;;-0.60;73.90;;;;;;5029801;28;20397;-67
2021/03/20 04:11:15;;;;;;;11.93;7.28;;;-0.60;73.80;;;;;;5026722;28;20439;-66
2021/03/20 04:14:01;;;;;;;13.30;7.80;;;-0.60;74.30;;;;;;5029107;28;20118;-65
2021/03/20 04:16:35;;;;;;;12.82;7.22;;;-0.60;74.30;;;;;;5031862;28;20064;-66
2021/03/20 04:19:30;;;;;;;12.48;7.50;;;-0.60;74.30;;;;;;5035436;28;20065;-66
2021/03/20 04:22:06;;;;;;;12.95;7.45;;;-0.60;74.80;;;;;;5034780;28;20033;-66
2021/03/20 04:24:43;;;;;;;11.65;7.28;;;-0.60;74.50;;;;;;5029795;28;20625;-65
2021/03/20 04:27:15;;;;;;;13.52;7.53;;;-0.50;74.80;;;;;;5026071;28;20119;-66
2021/03/20 04:29:52;;;;;;;13.50;7.57;;;-0.50;74.80;;;;;;5036947;28;20504;-64
2021/03/20 04:32:26;;;;;;;13.05;7.40;;;-0.50;75.10;;;;;;5036125;28;20531;-67
2021/03/20 04:35:04;;;;;;;12.82;7.28;;;-0.50;75.00;;;;;;5052073;28;20036;-66
2021/03/20 04:37:51;;;;;;;13.15;7.18;;;-0.40;75.20;;;;;;5056120;28;20036;-66
2021/03/20 04:40:38;;;;;;;13.02;7.47;;;-0.40;75.50;;;;;;5053210;28;20037;-66
2021/03/20 04:43:09;;;;;;;13.13;7.30;;;-0.40;75.50;;;;;;5050518;28;20040;-65
2021/03/20 04:45:45;;;;;;;11.02;6.78;;;-0.30;75.30;;;;;;5057513;28;20028;-65
2021/03/20 04:48:19;;;;;;;11.25;6.60;;;-0.20;75.50;;;;;;5055321;28;20033;-67
2021/03/20 04:50:50;;;;;;;12.07;7.28;;;-0.20;75.30;;;;;;5050992;28;20155;-65
2021/03/20 04:53:18;;;;;;;15.85;9.05;;;-0.10;75.40;;;;;;5056826;28;20033;-65
2021/03/20 04:55:49;;;;;;;15.52;9.18;;;-0.10;75.40;;;;;;5053697;28;20120;-65
2021/03/20 04:58:52;;;;;;;13.60;8.13;;;0.00;75.30;;;;;;5054995;28;20037;-66
2021/03/20 05:01:44;;;;;;;10.50;7.22;;;0.00;75.60;;;;;;5031381;28;20041;-66
2021/03/20 05:04:28;;;;;;;10.52;7.10;;;0.10;75.80;;;;;;5033614;28;20032;-66
2021/03/20 05:07:00;;;;;;;12.65;7.82;;;0.20;75.60;;;;;;5047339;28;20029;-65
2021/03/20 05:09:30;;;;;;;10.32;7.15;;;0.20;75.20;;;;;;5042169;28;20028;-66
2021/03/20 05:12:02;;;;;;;11.38;6.97;;;0.30;75.40;;;;;;5049671;28;20517;-66
2021/03/20 05:14:40;;;;;;;10.80;7.60;;;0.30;75.30;;;;;;5053991;28;20033;-66
2021/03/20 05:17:13;;;;;;;12.80;7.85;;;0.40;75.60;;;;;;5064394;28;20061;-65
2021/03/20 05:19:41;;;;;;;10.93;6.95;;;0.40;75.50;;;;;;5050732;28;20495;-65
2021/03/20 05:22:07;;;;;;;10.15;6.30;;;0.40;75.30;;;;;;5053841;28;20033;-66
2021/03/20 05:24:39;;;;;;;10.00;6.10;;;0.40;75.20;;;;;;5051130;28;20071;-65
2021/03/20 05:27:11;;;;;;;9.77;6.07;;;0.50;75.30;;;;;;5053409;28;20041;-65
2021/03/20 05:29:39;;;;;;;9.52;5.80;;;0.50;75.30;;;;;;5046522;28;20029;-65
2021/03/20 05:32:08;;;;;;;9.75;5.85;;;0.50;75.10;;;;;;5052112;28;20032;-66
2021/03/20 05:34:42;;;;;;;8.27;5.78;;;0.50;74.90;;;;;;5054142;28;20037;-65
2021/03/20 05:37:18;;;;;;;10.60;6.10;;;0.50;74.80;;;;;;5056240;28;20059;-65
2021/03/20 05:39:46;;;;;;;9.93;6.40;;;0.50;74.80;;;;;;5058202;28;20032;-66
2021/03/20 05:42:25;;;;;;;10.07;5.90;;;0.50;74.70;;;;;;5055151;28;20041;-65
2021/03/20 05:45:20;;;;;;;10.82;6.35;;;0.60;74.90;;;;;;5050645;28;20090;-65
2021/03/20 05:48:19;;;;;;;9.93;6.82;;;0.60;74.80;;;;;;5042224;28;20103;-65
2021/03/20 05:51:23;;;;;;;9.68;6.65;;;0.60;74.70;;;;;;5058213;28;20037;-66
2021/03/20 05:53:56;;;;;;;10.73;6.65;;;0.60;74.80;;;;;;5054853;28;20090;-66
2021/03/20 05:56:37;;;;;;;10.63;6.80;;;0.60;74.60;;;;;;5054507;28;20080;-64
2021/03/20 05:59:27;;;;;;;10.93;6.85;;;0.70;74.70;;;;;;5060042;28;20279;-66
2021/03/20 06:02:24;;;;;;;9.32;6.45;;;0.70;74.70;;;;;;5056038;28;20021;-65
2021/03/20 06:05:19;;;;;;;9.68;5.72;;;0.70;74.70;;;;;;5055560;28;20029;-65
2021/03/20 06:07:59;;;;;;;9.57;6.20;;;0.70;74.80;;;;;;5036659;28;20048;-64
2021/03/20 06:10:42;;;;;;;9.73;6.25;;;0.70;74.50;;;;;;5047234;28;20033;-65
2021/03/20 06:13:52;;;;;;;9.60;6.32;;;0.80;74.60;;;;;;5052575;28;20029;-67
2021/03/20 06:16:26;;;;;;;12.85;6.15;;;0.80;74.60;;;;;;5016979;28;20058;-65
2021/03/20 06:19:09;;;;;;;9.67;6.33;;;0.80;74.40;;;;;;5003986;28;20042;-65
2021/03/20 06:21:47;;;;;;;13.20;7.28;;;0.80;74.40;;;;;;5021747;28;20315;-65
2021/03/20 06:24:48;;;;;;;11.25;6.90;;;0.80;74.30;;;;;;5034992;28;20055;-64
2021/03/20 06:27:23;;;;;;;12.32;7.10;;;0.90;74.10;;;;;;5039460;28;20033;-66
2021/03/20 06:30:00;;;;;;;11.98;6.93;;;0.90;74.00;;;;;;5029735;28;20124;-66
2021/03/20 06:32:32;;;;;;;14.00;7.68;;;0.90;73.90;;;;;;5034105;28;20163;-65
2021/03/20 06:35:24;;;;;;;18.15;8.32;;;0.90;73.80;;;;;;5027169;28;20037;-65
2021/03/20 06:37:56;;;;;;;13.10;7.50;;;1.00;73.80;;;;;;5024302;28;20042;-65
2021/03/20 06:40:52;;;;;;;12.63;7.85;;;1.00;73.70;;;;;;5027133;28;20033;-66
2021/03/20 06:43:21;;;;;;;11.52;7.43;;;1.00;73.60;;;;;;5032748;28;20036;-65
2021/03/20 06:45:50;;;;;;;9.85;6.20;;;1.00;73.60;;;;;;5030750;28;20510;-65
2021/03/20 06:48:23;;;;;;;10.18;6.38;;;1.10;73.60;;;;;;5008559;28;20057;-66
2021/03/20 06:50:55;;;;;;;9.52;6.35;;;1.10;73.70;;;;;;5015402;28;20552;-66
2021/03/20 06:53:48;;;;;;;10.85;6.38;;;1.10;73.60;;;;;;5030960;28;20036;-65
2021/03/20 06:56:17;;;;;;;10.05;6.50;;;1.20;73.70;;;;;;5025996;28;20033;-66
2021/03/20 06:58:44;;;;;;;9.63;6.20;;;1.20;73.70;;;;;;5042944;28;20035;-66
2021/03/20 07:01:25;;;;;;;8.57;6.50;;;1.20;73.70;;;;;;5037349;28;20504;-65
2021/03/20 07:04:11;;;;;;;8.82;6.30;;;1.30;73.60;;;;;;5038084;28;20435;-66
2021/03/20 07:07:01;;;;;;;9.82;6.45;;;1.30;73.50;;;;;;5035918;28;20127;-65
2021/03/20 07:09:32;;;;;;;8.68;6.00;;;1.40;73.40;;;;;;5037946;28;20037;-64
2021/03/20 07:12:23;;;;;;;9.32;6.32;;;1.40;73.30;;;;;;5030411;28;20045;-67
2021/03/20 07:14:58;;;;;;;7.88;5.95;;;1.40;72.60;;;;;;5042736;28;21276;-65
2021/03/20 07:17:26;;;;;;;7.95;5.97;;;1.40;72.90;;;;;;5049971;28;20120;-65
2021/03/20 07:20:02;;;;;;;8.15;5.75;;;1.50;72.60;;;;;;5038212;28;20033;-66
2021/03/20 07:22:40;;;;;;;8.13;5.95;;;1.40;72.20;;;;;;5036668;28;20072;-65
2021/03/20 07:25:32;;;;;;;7.75;5.90;;;1.50;72.30;;;;;;5037404;28;20037;-66
2021/03/20 07:28:14;;;;;;;8.68;6.15;;;1.50;72.40;;;;;;5033235;28;20029;-65
2021/03/20 07:31:00;;;;;;;10.13;5.60;;;1.50;72.50;;;;;;5037286;28;20747;-66
2021/03/20 07:33:36;;;;;;;10.48;6.35;;;1.50;72.60;;;;;;5034809;28;20032;-66
2021/03/20 07:36:36;;;;;;;6.82;5.10;;;1.60;72.90;;;;;;5037221;28;20047;-66
2021/03/20 07:39:24;;;;;;;11.65;6.22;;;1.60;72.80;;;;;;4996692;28;20029;-66
2021/03/20 07:42:06;;;;;;;9.05;6.03;;;1.70;72.70;;;;;;5030466;28;20036;-64
2021/03/20 07:44:56;;;;;;;6.60;5.10;;;1.70;72.30;;;;;;5029762;28;20040;-65
2021/03/20 07:47:25;;;;;;;7.40;5.28;;;1.80;71.40;;;;;;5049797;28;20438;-65
2021/03/20 07:50:07;;;;;;;7.40;4.75;;;1.80;71.20;;;;;;5055693;28;20029;-65
2021/03/20 07:52:36;;;;;;;8.00;5.38;;;1.80;70.30;;;;;;5050071;28;20045;-66
2021/03/20 07:55:21;;;;;;;7.78;5.22;;;1.80;70.70;;;;;;5054249;28;20552;-66
2021/03/20 07:57:52;;;;;;;7.45;5.03;;;1.80;70.30;;;;;;5050303;28;20049;-65
2021/03/20 08:00:29;;;;;;;6.88;5.00;;;1.80;70.50;;;;;;5051790;28;20040;-65
2021/03/20 08:03:14;;;;;;;7.55;6.03;;;1.80;70.50;;;;;;5052945;28;20064;-66
2021/03/20 08:05:40;;;;;;;8.27;5.88;;;1.80;70.70;;;;;;5040976;28;20444;-66
2021/03/20 08:08:25;;;;;;;8.20;6.18;;;1.80;71.00;;;;;;5052069;28;20127;-66
2021/03/20 08:10:59;;;;;;;7.43;5.40;;;1.80;70.20;;;;;;5047850;28;20399;-65
2021/03/20 08:13:46;;;;;;;9.00;6.18;;;1.80;70.50;;;;;;5050131;28;20070;-66
2021/03/20 08:16:18;;;;;;;7.60;5.80;;;1.80;70.60;;;;;;5049480;28;20099;-66
2021/03/20 08:18:46;;;;;;;10.60;6.10;;;1.80;70.50;;;;;;5050291;28;20033;-66
2021/03/20 08:21:31;;;;;;;8.43;5.80;;;1.70;70.20;;;;;;5052306;28;20037;-66
2021/03/20 08:24:05;;;;;;;;;;;1.70;69.70;;;;;;5050678;28;20025;-66
2021/03/20 08:26:44;;;;;;;7.72;5.45;;;1.80;69.90;;;;;;5047432;28;20288;-66
2021/03/20 08:29:25;;;;;;;7.43;5.00;;;1.70;69.80;;;;;;5044147;28;20090;-67
2021/03/20 08:32:04;;;;;;;7.32;5.38;;;1.70;69.90;;;;;;5048789;28;20033;-65
2021/03/20 08:34:44;;;;;;;6.50;5.00;;;1.70;69.80;;;;;;5047655;28;20118;-66
2021/03/20 08:37:47;;;;;;;5.55;5.03;;;1.70;68.80;;;;;;5049302;28;20040;-66
2021/03/20 08:40:33;;;;;;;7.93;5.15;;;1.70;68.20;;;;;;5049195;28;20116;-66
2021/03/20 08:43:28;;;;;;;7.18;5.28;;;1.70;68.90;;;;;;5051659;28;20492;-66
2021/03/20 08:46:14;;;;;;;6.13;4.20;;;1.70;67.70;;;;;;5052137;28;20451;-65
2021/03/20 08:49:04;;;;;;;6.32;4.50;;;1.70;68.80;;;;;;5052802;28;21399;-65
2021/03/20 08:51:52;;;;;;;5.85;4.55;;;1.70;67.80;;;;;;5051387;28;20025;-65
2021/03/20 08:54:32;;;;;;;5.35;4.15;;;1.70;67.20;;;;;;5055899;28;20033;-66
2021/03/20 08:57:33;;;;;;;6.28;4.63;;;1.70;67.90;;;;;;5052166;28;20029;-66
2021/03/20 09:00:07;;;;;;;5.65;4.07;;;1.70;65.60;;;;;;5049434;28;20037;-65
2021/03/20 09:02:38;;;;;;;;;;;1.70;66.80;;;;;;5051832;28;20037;-65
2021/03/20 09:05:48;;;;;;;7.85;4.43;;;1.70;66.50;;;;;;5050110;28;19912;-66
2021/03/20 09:08:27;;;;;;;5.22;3.90;;;1.70;67.20;;;;;;5051091;28;20171;-66
2021/03/20 09:11:24;;;;;;;5.32;4.07;;;1.70;66.30;;;;;;5051676;28;20116;-66
2021/03/20 09:13:58;;;;;;;4.68;4.03;;;1.70;63.50;;;;;;5057058;28;20115;-65
2021/03/20 09:16:43;;;;;;;6.75;4.38;;;1.70;65.30;;;;;;5055565;28;20102;-66
2021/03/20 09:19:24;;;;;;;5.30;3.05;;;1.60;64.70;;;;;;5051950;28;20053;-66
2021/03/20 09:21:54;;;;;;;6.32;3.45;;;1.60;65.10;;;;;;5053868;28;20376;-65
2021/03/20 09:24:25;;;;;;;3.85;2.70;;;1.60;62.80;;;;;;5058454;28;20053;-66
2021/03/20 09:26:56;;;;;;;4.53;3.00;;;1.60;63.30;;;;;;5053749;28;20033;-66
2021/03/20 09:29:45;;;;;;;5.57;3.42;;;1.60;63.90;;;;;;5056701;28;20127;-65
2021/03/20 09:32:18;;;;;;;4.18;3.40;;;1.50;62.70;;;;;;5056761;28;20037;-66
2021/03/20 09:34:52;;;;;;;4.53;3.03;;;1.50;61.60;;;;;;5056042;28;20049;-66
2021/03/20 09:37:21;;;;;;;;;;;1.50;60.40;;;;;;5058560;28;20040;-66
2021/03/20 09:39:53;;;;;;;6.88;2.75;;;1.40;61.50;;;;;;5056632;28;20456;-65
2021/03/20 09:42:30;;;;;;;5.25;3.28;;;1.50;63.50;;;;;;5056998;28;20029;-65
2021/03/20 09:45:07;;;;;;;6.63;3.70;;;1.50;64.00;;;;;;5054594;28;20032;-65
2021/03/20 09:47:48;;;;;;;4.18;3.25;;;1.50;64.20;;;;;;5056009;28;20416;-65
2021/03/20 09:50:22;;;;;;;3.72;2.80;;;1.60;64.20;;;;;;5052889;28;20120;-65
2021/03/20 09:53:10;;;;;;;5.93;4.03;;;1.70;63.50;;;;;;5057597;28;20033;-65
2021/03/20 09:55:43;;;;;;;5.22;3.65;;;1.70;63.30;;;;;;5057023;28;20044;-66
2021/03/20 09:58:21;;;;;;;4.25;3.40;;;1.80;62.00;;;;;;5058119;28;20041;-65
2021/03/20 10:00:49;;;;;;;5.07;3.70;;;1.90;62.30;;;;;;5032407;28;20053;-65
2021/03/20 10:03:48;;;;;;;12.40;6.80;;;1.90;61.30;;;;;;5035826;28;20033;-65
2021/03/20 10:06:23;;;;;;;6.32;4.25;;;1.90;62.10;;;;;;5035132;28;20029;-66
2021/03/20 10:09:14;;;;;;;5.70;3.53;;;2.00;62.80;;;;;;5034909;28;20037;-65
2021/03/20 10:11:55;;;;;;;3.95;3.20;;;2.00;62.80;;;;;;5031088;28;20037;-65
2021/03/20 10:15:18;;;;;;;7.47;3.30;;;2.00;61.80;;;;;;5031400;28;20065;-64
2021/03/20 10:18:10;;;;;;;3.17;2.67;;;2.20;58.50;;;;;;5033243;28;20501;-65
2021/03/20 10:20:59;;;;;;;6.28;3.40;;;2.20;59.60;;;;;;5022529;28;20497;-65
2021/03/20 10:23:50;;;;;;;4.57;3.10;;;2.30;59.50;;;;;;5058872;28;20032;-65
2021/03/20 10:26:34;;;;;;;4.10;3.05;;;2.20;57.20;;;;;;5057180;28;20415;-65
2021/03/20 10:29:06;;;;;;;3.85;2.85;;;2.30;59.90;;;;;;5057278;28;20029;-65
2021/03/20 10:31:42;;;;;;;5.43;2.80;;;2.30;60.60;;;;;;5058038;28;20465;-65
2021/03/20 10:34:12;;;;;;;4.00;2.92;;;2.40;60.20;;;;;;5059515;28;20044;-65
2021/03/20 10:36:44;;;;;;;6.35;3.10;;;2.50;60.10;;;;;;5055189;28;20178;-65
2021/03/20 10:39:31;;;;;;;6.10;3.40;;;2.50;60.60;;;;;;5057197;28;20029;-65
2021/03/20 10:42:03;;;;;;;4.90;3.25;;;2.50;59.00;;;;;;5056006;28;20029;-65
2021/03/20 10:44:40;;;;;;;4.00;3.25;;;2.50;56.00;;;;;;5053690;28;20037;-65
2021/03/20 10:47:17;;;;;;;5.95;3.40;;;2.40;55.70;;;;;;5057730;28;20389;-65
2021/03/20 10:49:59;;;;;;;3.55;2.88;;;2.30;56.40;;;;;;5058885;28;20025;-65
2021/03/20 10:52:39;;;;;;;6.68;3.22;;;2.30;57.20;;;;;;5054590;28;20041;-65
2021/03/20 10:55:29;;;;;;;3.90;3.30;;;2.20;58.50;;;;;;5055063;28;20029;-65
2021/03/20 10:58:00;;;;;;;4.28;2.88;;;2.20;56.80;;;;;;5041321;28;20080;-66
2021/03/20 11:00:47;;;;;;;2.80;2.50;;;2.20;57.70;;;;;;5038198;28;20045;-65
2021/03/20 11:03:30;;;;;;;3.85;3.33;;;2.20;57.50;;;;;;5038310;28;20044;-65
2021/03/20 11:06:08;;;;;;;5.72;3.00;;;2.30;58.40;;;;;;5037095;28;20033;-64
2021/03/20 11:08:35;;;;;;;3.97;2.90;;;2.30;58.20;;;;;;5037844;28;20508;-65
2021/03/20 11:11:21;;;;;;;3.33;2.50;;;2.40;59.30;;;;;;5034294;28;20132;-65
2021/03/20 11:13:49;;;;;;;3.17;2.50;;;2.40;57.60;;;;;;5036716;28;20033;-65
2021/03/20 11:16:20;;;;;;;3.47;2.22;;;2.50;58.70;;;;;;5037143;28;20429;-65
2021/03/20 11:18:50;;;;;;;4.50;2.70;;;2.50;57.40;;;;;;5055771;28;20555;-65
2021/03/20 11:21:27;;;;;;;4.38;2.78;;;2.60;56.10;;;;;;5073503;28;20029;-65
2021/03/20 11:24:03;;;;;;;4.20;3.47;;;2.60;57.50;;;;;;5057907;28;20520;-65
2021/03/20 11:26:37;;;;;;;5.68;3.38;;;2.60;57.70;;;;;;5056014;28;20499;-65
2021/03/20 11:29:06;;;;;;;3.78;2.88;;;2.70;58.30;;;;;;5057477;28;20020;-65
2021/03/20 11:31:52;;;;;;;5.13;3.00;;;2.70;58.60;;;;;;5057875;28;20056;-65
2021/03/20 11:34:30;;;;;;;7.00;2.85;;;2.80;58.50;;;;;;5056468;28;20029;-65
2021/03/20 11:36:59;;;;;;;4.40;3.00;;;2.90;57.70;;;;;;5055072;28;20036;-65
2021/03/20 11:39:28;;;;;;;4.38;3.20;;;2.90;58.50;;;;;;5056744;28;20511;-65
2021/03/20 11:42:07;;;;;;;2.60;2.38;;;3.00;58.60;;;;;;5055762;28;20063;-65
2021/03/20 11:44:44;;;;;;;4.10;2.47;;;3.10;57.20;;;;;;5057187;28;20089;-65
2021/03/20 11:47:22;;;;;;;3.40;2.75;;;3.10;58.00;;;;;;5057550;28;20033;-65
2021/03/20 11:49:54;;;;;;;2.80;2.35;;;3.20;57.00;;;;;;5058232;28;20024;-64
2021/03/20 11:52:43;;;;;;;4.82;2.80;;;3.20;56.10;;;;;;5057191;28;20106;-65
2021/03/20 11:55:23;;;;;;;3.58;2.78;;;3.20;53.90;;;;;;5056846;28;20535;-65
2021/03/20 11:58:01;;;;;;;3.70;3.00;;;3.20;55.00;;;;;;5047671;28;20330;-65
2021/03/20 12:00:34;;;;;;;4.57;2.90;;;3.20;56.60;;;;;;5053674;28;20033;-65
2021/03/20 12:03:28;;;;;;;4.28;2.70;;;3.20;56.80;;;;;;5070828;28;20057;-65
2021/03/20 12:06:15;;;;;;;4.03;3.10;;;3.30;57.50;;;;;;5050446;28;20033;-65
2021/03/20 12:08:50;;;;;;;4.38;2.47;;;3.40;57.00;;;;;;5054412;28;20040;-65
2021/03/20 12:11:20;;;;;;;5.68;3.30;;;3.40;56.60;;;;;;5049713;28;20598;-65
2021/03/20 12:13:56;;;;;;;3.75;2.78;;;3.50;57.50;;;;;;5056318;28;20039;-65
2021/03/20 12:16:43;;;;;;;3.45;2.80;;;3.50;55.50;;;;;;5056305;28;20041;-66
2021/03/20 12:19:19;;;;;;;3.60;2.42;;;3.60;56.00;;;;;;5054138;28;20032;-65
2021/03/20 12:22:06;;;;;;;2.45;2.25;;;3.60;56.60;;;;;;5054787;28;20026;-65
2021/03/20 12:24:49;;;;;;;3.20;2.22;;;3.70;56.20;;;;;;5054424;28;20040;-65
2021/03/20 12:27:36;;;;;;;3.58;2.50;;;3.70;56.50;;;;;;5054392;28;20047;-65
2021/03/20 12:30:16;;;;;;;4.03;2.60;;;3.80;53.00;;;;;;5057602;28;20029;-65
2021/03/20 12:32:47;;;;;;;4.90;2.33;;;3.80;55.00;;;;;;5054120;28;20070;-65
2021/03/20 12:35:30;;;;;;;3.80;2.50;;;3.80;56.50;;;;;;5054653;28;20052;-65
2021/03/20 12:38:07;;;;;;;2.80;2.50;;;3.80;56.50;;;;;;5055170;28;20029;-65
2021/03/20 12:40:39;;;;;;;2.72;2.35;;;3.90;56.10;;;;;;5056149;28;20033;-66
2021/03/20 12:43:14;;;;;;;4.15;2.63;;;3.90;56.50;;;;;;5055636;28;20033;-65
2021/03/20 12:45:42;;;;;;;2.85;2.35;;;3.90;55.90;;;;;;5055013;28;20179;-65
2021/03/20 12:48:12;;;;;;;3.75;3.00;;;3.90;55.90;;;;;;5059497;28;20040;-64
2021/03/20 12:50:37;;;;;;;3.08;2.78;;;3.90;54.60;;;;;;5062532;28;20029;-65
2021/03/20 12:53:08;;;;;;;4.72;2.78;;;3.90;55.20;;;;;;5061145;28;20044;-65
2021/03/20 12:55:34;;;;;;;4.60;3.00;;;3.80;55.70;;;;;;5062782;28;20041;-64
2021/03/20 12:58:03;;;;;;;3.30;2.83;;;3.80;55.90;;;;;;5060609;28;20039;-64
2021/03/20 13:00:35;;;;;;;4.20;3.13;;;3.80;55.20;;;;;;5058834;28;20048;-65
2021/03/20 13:03:01;;;;;;;5.60;3.92;;;3.80;54.50;;;;;;5057343;28;20041;-65
2021/03/20 13:05:38;;;;;;;4.63;3.00;;;3.80;55.30;;;;;;5057622;28;20035;-65
2021/03/20 13:08:07;;;;;;;3.22;2.30;;;3.80;54.60;;;;;;5060007;28;20112;-65
2021/03/20 13:10:38;;;;;;;3.33;3.00;;;3.80;54.50;;;;;;5053810;28;20116;-65
2021/03/20 13:13:04;;;;;;;3.08;2.33;;;3.80;54.60;;;;;;5059807;28;20497;-65
2021/03/20 13:15:29;;;;;;;2.70;2.45;;;3.80;54.80;;;;;;5058144;28;20051;-63
2021/03/20 13:17:55;;;;;;;4.60;2.20;;;3.80;55.20;;;;;;5058580;28;20404;-65
2021/03/20 13:20:24;;;;;;;4.03;2.08;;;3.80;55.30;;;;;;5059236;28;20071;-65
2021/03/20 13:22:53;;;;;;;2.95;2.60;;;3.80;55.40;;;;;;5059599;28;20037;-65
2021/03/20 13:25:24;;;;;;;3.03;2.47;;;3.90;55.30;;;;;;5056520;28;20044;-65
2021/03/20 13:27:52;;;;;;;2.95;2.65;;;3.90;54.50;;;;;;5030749;28;20115;-65
2021/03/20 13:30:23;;;;;;;3.28;2.30;;;3.90;54.90;;;;;;5038720;28;20063;-65
2021/03/20 13:32:53;;;;;;;3.60;2.78;;;3.90;54.80;;;;;;5039790;28;20064;-65
2021/03/20 13:35:24;;;;;;;3.67;2.90;;;4.00;55.30;;;;;;5029858;28;20049;-65
2021/03/20 13:37:53;;;;;;;4.53;2.60;;;4.00;55.50;;;;;;5027327;28;20060;-65
2021/03/20 13:40:24;;;;;;;3.03;2.10;;;4.00;53.80;;;;;;5019146;28;20033;-65
2021/03/20 13:42:50;;;;;;;6.13;3.60;;;4.00;54.50;;;;;;5028595;28;20029;-65